Time;durP1;ratioP1;P1;durP2;ratioP2;P2;SDS_P1;SDS_P2;PMS_P1;PMS_P2;Temp;Humidity;BMP_temperature;BMP_pressure;BME280_temperature;BME280_humidity;BME280_pressure;Samples;Min_cycle;Max_cycle;Signal;HPM_P1;HPM_P2
2023/01/27 00:00:12;;;;;;;12.10;6.50;;;;;;;6.14;62.67;101742.31;685958;28;1341;-80
2023/01/27 00:00:35;;;;;;;13.60;6.60;;;;;;;6.10;62.54;101746.41;683295;28;1223;-80
2023/01/27 00:00:56;;;;;;;12.80;6.43;;;;;;;6.14;62.66;101735.41;686011;28;1016;-80
2023/01/27 00:01:17;;;;;;;12.02;6.38;;;;;;;6.11;62.65;101743.03;680701;29;1514;-80
2023/01/27 00:01:56;;;;;;;12.55;6.63;;;;;;;5.98;63.10;101741.38;683289;29;1229;-80
2023/01/27 00:02:17;;;;;;;15.50;7.00;;;;;;;6.02;62.90;101745.03;683280;28;1922;-81
2023/01/27 00:02:38;;;;;;;16.33;6.93;;;;;;;6.01;63.03;101741.53;686081;28;1004;-80
2023/01/27 00:02:59;;;;;;;16.38;6.80;;;;;;;6.15;62.96;101762.25;686099;28;1122;-81
2023/01/27 00:03:20;;;;;;;14.45;6.70;;;;;;;6.12;62.64;101747.41;688720;28;1308;-80
2023/01/27 00:03:40;;;;;;;11.88;6.60;;;;;;;6.07;62.90;101745.31;685964;28;1149;-80
2023/01/27 00:04:02;;;;;;;13.00;6.63;;;;;;;6.09;62.57;101746.31;685944;28;1158;-80
2023/01/27 00:04:23;;;;;;;12.35;6.90;;;;;;;6.15;62.41;101744.09;686047;28;803;-80
2023/01/27 00:04:44;;;;;;;12.95;6.80;;;;;;;6.13;62.46;101748.28;688669;28;1244;-81
2023/01/27 00:05:05;;;;;;;13.13;6.53;;;;;;;6.11;62.71;101749.88;688525;28;1100;-81
2023/01/27 00:05:25;;;;;;;12.10;6.00;;;;;;;6.04;62.94;101738.25;688704;28;1174;-81
2023/01/27 00:05:47;;;;;;;11.68;5.90;;;;;;;6.10;62.61;101749.00;690938;28;748;-80
2023/01/27 00:06:10;;;;;;;10.10;5.72;;;;;;;6.11;62.53;101747.28;685997;28;1115;-81
2023/01/27 00:06:31;;;;;;;9.23;5.60;;;;;;;6.14;62.83;101747.50;684127;28;1165;-81
2023/01/27 00:06:51;;;;;;;10.77;5.93;;;;;;;6.12;62.57;101738.72;685827;28;816;-80
2023/01/27 00:07:12;;;;;;;11.90;6.20;;;;;;;6.15;62.66;101749.28;685886;28;1147;-80
2023/01/27 00:07:33;;;;;;;11.35;6.05;;;;;;;6.14;62.76;101753.56;688666;28;1255;-80
2023/01/27 00:07:57;;;;;;;10.50;6.10;;;;;;;6.09;62.19;101731.66;691388;28;1192;-80
2023/01/27 00:08:18;;;;;;;10.43;6.10;;;;;;;6.09;62.92;101756.69;688652;28;1381;-80
2023/01/27 00:08:38;;;;;;;11.48;6.40;;;;;;;6.08;62.80;101742.81;683335;29;1061;-80
2023/01/27 00:08:59;;;;;;;10.60;6.40;;;;;;;6.13;62.62;101740.50;683349;28;1014;-80
2023/01/27 00:09:19;;;;;;;9.17;6.30;;;;;;;6.11;62.25;101743.03;688777;28;1072;-80
2023/01/27 00:09:40;;;;;;;10.25;6.38;;;;;;;6.14;62.59;101737.13;691316;28;1222;-80
2023/01/27 00:10:01;;;;;;;11.30;6.38;;;;;;;6.22;62.47;101753.13;691242;28;1231;-80
2023/01/27 00:10:23;;;;;;;13.27;6.68;;;;;;;6.24;62.19;101754.13;691156;28;846;-81
2023/01/27 00:10:44;;;;;;;12.18;6.30;;;;;;;6.17;62.54;101745.09;685992;28;1029;-80
2023/01/27 00:13:43;;;;;;;15.77;7.25;;;;;;;6.20;62.62;101747.84;690544;28;1229;-80
2023/01/27 00:14:22;;;;;;;12.93;6.20;;;;;;;6.21;62.14;101757.44;688284;28;1334;-80
2023/01/27 00:14:56;;;;;;;12.27;6.20;;;;;;;6.20;62.06;101750.44;690106;28;1416;-80
2023/01/27 00:15:16;;;;;;;9.80;5.93;;;;;;;6.17;62.17;101747.69;688685;28;1100;-80
2023/01/27 00:15:37;;;;;;;9.27;5.78;;;;;;;6.16;62.29;101751.94;683360;29;975;-80
2023/01/27 00:15:58;;;;;;;11.85;5.88;;;;;;;6.13;61.98;101758.63;683356;28;1125;-80
2023/01/27 00:16:19;;;;;;;12.68;6.18;;;;;;;6.09;62.22;101744.63;683294;29;1482;-80
2023/01/27 00:16:40;;;;;;;13.57;6.57;;;;;;;6.13;62.35;101750.88;680391;29;1404;-80
2023/01/27 00:17:01;;;;;;;11.00;6.63;;;;;;;6.22;61.97;101761.81;680692;29;842;-80
2023/01/27 00:17:21;;;;;;;10.15;6.15;;;;;;;6.17;62.66;101758.03;680620;29;1209;-80
2023/01/27 00:17:42;;;;;;;8.68;5.63;;;;;;;6.25;62.13;101762.00;680622;29;1209;-80
2023/01/27 00:18:03;;;;;;;9.63;5.50;;;;;;;6.25;62.31;101771.47;683218;29;1167;-80
2023/01/27 00:18:24;;;;;;;10.30;5.70;;;;;;;6.21;62.26;101770.41;683362;28;1282;-80
2023/01/27 00:18:45;;;;;;;9.85;5.57;;;;;;;6.24;62.22;101770.59;683252;29;1127;-80
2023/01/27 00:19:05;;;;;;;8.40;5.43;;;;;;;6.18;62.12;101765.03;683150;29;1093;-80
2023/01/27 00:19:26;;;;;;;9.00;5.55;;;;;;;6.13;62.20;101756.03;683397;29;1168;-79
2023/01/27 00:19:46;;;;;;;11.60;5.70;;;;;;;6.19;62.16;101769.41;682914;29;1012;-80
2023/01/27 00:20:09;;;;;;;12.80;6.20;;;;;;;6.13;62.45;101762.16;680570;29;1178;-80
2023/01/27 00:24:37;;;;;;;13.27;7.18;;;;;;;6.21;62.21;101765.22;694166;28;1135;-80
2023/01/27 00:24:57;;;;;;;11.27;6.63;;;;;;;6.17;62.03;101763.22;689816;28;1977;-82
2023/01/27 00:25:19;;;;;;;11.63;6.90;;;;;;;6.22;61.98;101771.28;688675;28;1260;-82
2023/01/27 00:25:39;;;;;;;13.20;7.20;;;;;;;6.13;62.23;101761.22;688691;28;1092;-82
2023/01/27 00:26:05;;;;;;;13.97;7.00;;;;;;;6.17;62.27;101763.22;688105;28;1128;-82
2023/01/27 00:26:25;;;;;;;16.63;7.30;;;;;;;6.15;62.64;101767.44;687649;28;1177;-82
2023/01/27 00:26:46;;;;;;;14.82;7.20;;;;;;;6.13;62.27;101761.22;689466;28;907;-80
2023/01/27 00:27:08;;;;;;;13.00;7.10;;;;;;;6.11;62.01;101758.56;688571;28;1089;-80
2023/01/27 00:27:28;;;;;;;11.02;7.07;;;;;;;6.13;62.00;101761.22;683256;28;1148;-80
2023/01/27 00:27:50;;;;;;;15.40;8.15;;;;;;;6.11;62.09;101768.94;685999;28;1477;-80
2023/01/27 00:28:21;;;;;;;17.58;8.55;;;;;;;6.15;61.93;101768.31;688504;28;1090;-80
2023/01/27 00:28:44;;;;;;;17.85;8.32;;;;;;;6.14;62.29;101769.13;691236;28;1505;-81
2023/01/27 00:29:05;;;;;;;13.48;8.07;;;;;;;6.17;62.13;101765.81;691258;28;1083;-80
2023/01/27 00:29:26;;;;;;;16.30;8.60;;;;;;;6.20;62.09;101781.56;685923;28;1050;-81
2023/01/27 00:29:47;;;;;;;15.80;8.63;;;;;;;6.14;61.95;101763.06;686025;28;775;-81
2023/01/27 00:30:09;;;;;;;16.85;9.15;;;;;;;6.17;61.63;101768.41;685947;28;1085;-80
2023/01/27 00:30:29;;;;;;;14.30;9.02;;;;;;;6.17;61.89;101765.81;685764;28;954;-80
2023/01/27 00:30:50;;;;;;;14.63;9.20;;;;;;;6.17;61.67;101773.59;683279;29;1055;-80
2023/01/27 00:33:26;;;;;;;14.18;9.30;;;;;;;6.15;62.05;101776.09;690793;28;1142;-80
2023/01/27 00:33:49;;;;;;;14.32;9.80;;;;;;;6.12;62.05;101780.19;687640;28;902;-80
2023/01/27 00:34:10;;;;;;;16.90;9.90;;;;;;;6.05;61.99;101772.81;685937;28;1125;-80
2023/01/27 00:34:33;;;;;;;17.00;10.00;;;;;;;6.09;61.98;101773.13;683215;29;1229;-80
2023/01/27 00:34:53;;;;;;;18.30;10.30;;;;;;;6.10;62.02;101776.59;683382;29;761;-80
2023/01/27 00:35:15;;;;;;;17.20;10.53;;;;;;;6.12;61.91;101787.97;685833;28;1159;-80
2023/01/27 00:35:35;;;;;;;20.02;10.98;;;;;;;6.07;61.92;101781.59;685922;28;1210;-82
2023/01/27 00:36:02;;;;;;;19.23;10.60;;;;;;;6.02;61.84;101776.13;686576;28;1115;-82
2023/01/27 00:36:23;;;;;;;19.52;10.80;;;;;;;6.04;61.97;101779.72;687142;28;919;-82
2023/01/27 00:36:43;;;;;;;18.40;11.00;;;;;;;6.05;61.90;101788.38;682951;29;1094;-82
2023/01/27 00:37:04;;;;;;;21.27;11.60;;;;;;;6.10;62.04;101781.78;683089;28;1161;-82
2023/01/27 00:37:27;;;;;;;22.25;11.75;;;;;;;6.17;62.13;101791.75;680729;29;1336;-82
2023/01/27 00:37:47;;;;;;;24.63;12.10;;;;;;;6.10;62.04;101779.19;685997;28;831;-82
2023/01/27 00:38:08;;;;;;;22.67;12.05;;;;;;;6.12;61.40;101787.97;683190;29;1100;-83
2023/01/27 00:38:30;;;;;;;22.75;12.00;;;;;;;6.09;61.70;101778.31;685796;28;1437;-81
2023/01/27 00:38:50;;;;;;;21.70;11.70;;;;;;;6.01;61.81;101788.19;688673;28;975;-80
2023/01/27 00:39:11;;;;;;;22.60;12.30;;;;;;;6.02;61.71;101789.09;688447;28;1088;-80
2023/01/27 00:39:32;;;;;;;22.15;12.02;;;;;;;6.03;61.88;101776.22;685962;28;997;-81
2023/01/27 00:39:53;;;;;;;21.00;11.90;;;;;;;6.05;61.81;101785.78;683258;28;1071;-80
2023/01/27 00:40:15;;;;;;;23.80;11.90;;;;;;;5.97;61.76;101773.25;685838;28;1177;-80
2023/01/27 00:40:36;;;;;;;21.83;11.77;;;;;;;5.91;62.06;101783.22;688619;28;1200;-81
2023/01/27 00:41:18;;;;;;;20.90;11.30;;;;;;;5.92;62.18;101787.59;688591;28;1064;-80
2023/01/27 00:41:39;;;;;;;20.27;11.23;;;;;;;5.86;62.41;101782.94;688616;28;1167;-80
2023/01/27 00:42:00;;;;;;;22.75;11.48;;;;;;;5.91;62.39;101795.28;685846;28;1294;-80
2023/01/27 00:42:20;;;;;;;22.30;11.10;;;;;;;5.86;62.17;101790.72;686271;28;1973;-81
2023/01/27 00:42:43;;;;;;;20.23;10.65;;;;;;;5.79;62.36;101782.44;688602;28;1092;-80
2023/01/27 00:43:04;;;;;;;18.70;10.60;;;;;;;5.92;62.48;101786.69;685861;28;1105;-80
2023/01/27 00:43:25;;;;;;;18.90;10.38;;;;;;;5.95;62.44;101787.78;691222;28;1202;-80
2023/01/27 00:43:50;;;;;;;17.90;9.57;;;;;;;5.98;62.10;101782.81;683335;29;1090;-80
2023/01/27 00:44:12;;;;;;;17.10;9.73;;;;;;;5.96;62.05;101784.41;685845;28;1090;-80
2023/01/27 00:44:33;;;;;;;16.48;10.18;;;;;;;5.98;62.20;101780.22;683155;29;1210;-80
2023/01/27 00:45:51;;;;;;;17.52;10.35;;;;;;;6.02;62.12;101797.75;682944;28;1236;-81
2023/01/27 00:46:13;;;;;;;15.77;9.80;;;;;;;5.91;61.97;101775.47;677801;29;1102;-80
2023/01/27 00:46:34;;;;;;;16.05;9.90;;;;;;;6.00;62.01;101796.75;677498;29;1390;-80
2023/01/27 00:46:55;;;;;;;18.45;10.90;;;;;;;5.96;62.15;101784.41;683007;28;1306;-80
2023/01/27 00:47:15;;;;;;;18.13;10.50;;;;;;;5.96;61.96;101786.09;683170;29;1181;-80
2023/01/27 00:47:36;;;;;;;18.05;10.40;;;;;;;6.01;61.92;101797.63;685941;28;988;-80
2023/01/27 00:47:57;;;;;;;16.17;9.82;;;;;;;5.99;61.95;101789.78;685743;28;1292;-80
2023/01/27 00:48:18;;;;;;;16.65;9.82;;;;;;;5.96;61.71;101784.41;685881;28;1262;-81
2023/01/27 00:48:39;;;;;;;16.02;9.82;;;;;;;5.97;61.81;101785.31;683108;29;1084;-80
2023/01/27 00:48:59;;;;;;;17.90;10.40;;;;;;;5.97;62.04;101791.41;683239;28;1144;-80
2023/01/27 00:49:20;;;;;;;18.02;10.52;;;;;;;5.94;62.04;101782.53;683293;28;1244;-80
2023/01/27 00:49:42;;;;;;;19.73;11.35;;;;;;;5.86;62.05;101790.72;685954;28;1211;-80
2023/01/27 00:50:03;;;;;;;16.55;10.50;;;;;;;5.84;62.10;101784.50;685755;28;1292;-80
2023/01/27 00:50:23;;;;;;;18.42;11.05;;;;;;;5.86;62.30;101776.84;686466;28;875;-80
2023/01/27 00:50:44;;;;;;;18.75;10.52;;;;;;;5.87;61.97;101783.81;685479;28;1265;-80
2023/01/27 00:51:05;;;;;;;20.15;10.40;;;;;;;5.84;62.19;101778.44;683132;29;1191;-80
2023/01/27 00:51:25;;;;;;;16.93;9.53;;;;;;;5.85;62.13;101780.25;685843;28;1056;-80
2023/01/27 00:51:46;;;;;;;15.90;9.05;;;;;;;5.91;62.09;101785.81;688515;28;846;-80
2023/01/27 00:52:07;;;;;;;18.55;9.30;;;;;;;5.92;61.96;101782.44;688281;28;1519;-80
2023/01/27 00:52:28;;;;;;;19.73;10.10;;;;;;;5.91;61.57;101783.22;683014;29;1513;-80
2023/01/27 00:52:51;;;;;;;20.30;10.40;;;;;;;5.87;62.05;101773.47;685748;28;1034;-80
2023/01/27 00:53:12;;;;;;;17.65;10.25;;;;;;;5.89;62.31;101787.41;685689;28;1098;-80
2023/01/27 00:53:33;;;;;;;17.70;10.00;;;;;;;5.83;61.92;101776.66;683113;28;1264;-80
2023/01/27 00:53:53;;;;;;;18.00;10.20;;;;;;;5.92;62.12;101787.59;685791;28;1037;-81
2023/01/27 00:54:14;;;;;;;17.40;10.15;;;;;;;5.87;62.08;101781.22;685681;28;1068;-81
2023/01/27 00:54:34;;;;;;;17.57;10.00;;;;;;;5.86;61.95;101782.03;683111;28;1368;-81
2023/01/27 00:54:57;;;;;;;17.23;10.18;;;;;;;5.84;62.17;101778.44;683152;29;1201;-80
2023/01/27 00:55:19;;;;;;;17.55;10.20;;;;;;;5.95;62.07;101800.75;688408;28;1225;-80
2023/01/27 00:55:42;;;;;;;19.20;10.00;;;;;;;5.86;62.18;101782.03;688377;28;960;-80
2023/01/27 00:56:03;;;;;;;18.40;9.67;;;;;;;5.91;62.16;101788.41;691051;28;1107;-80
2023/01/27 00:56:24;;;;;;;17.33;9.90;;;;;;;5.82;61.80;101786.13;688505;28;1257;-80
2023/01/27 00:56:45;;;;;;;17.00;10.00;;;;;;;5.90;61.69;101789.22;688437;28;740;-80
2023/01/27 00:57:06;;;;;;;17.75;10.25;;;;;;;5.92;62.08;101792.78;688627;28;1231;-80
2023/01/27 00:57:27;;;;;;;17.73;10.20;;;;;;;5.87;61.98;101781.22;683185;28;1326;-80
2023/01/27 00:57:47;;;;;;;18.88;10.30;;;;;;;5.83;62.03;101784.44;685970;28;823;-80
2023/01/27 00:58:08;;;;;;;17.92;10.00;;;;;;;5.86;61.98;101785.53;685438;28;1302;-80
2023/01/27 00:58:29;;;;;;;18.67;10.27;;;;;;;5.88;62.25;101790.78;685861;28;973;-80
2023/01/27 00:58:50;;;;;;;18.63;10.40;;;;;;;5.89;62.20;101787.41;691165;28;1440;-80
2023/01/27 00:59:10;;;;;;;18.67;10.43;;;;;;;5.78;62.22;101778.97;688498;28;1363;-80
2023/01/27 00:59:31;;;;;;;17.83;10.30;;;;;;;5.77;62.11;101781.44;688612;28;1105;-80
2023/01/27 00:59:51;;;;;;;17.42;10.40;;;;;;;5.84;61.96;101794.00;683283;29;1055;-80
2023/01/27 01:00:14;;;;;;;18.13;10.70;;;;;;;5.79;62.00;101791.13;683083;29;1118;-81
2023/01/27 01:00:34;;;;;;;19.10;10.90;;;;;;;5.79;62.17;101795.38;686335;28;985;-80
2023/01/27 01:00:58;;;;;;;18.67;10.73;;;;;;;5.71;61.95;101781.97;689574;28;1126;-80
2023/01/27 01:01:19;;;;;;;18.30;10.70;;;;;;;5.73;62.41;101781.28;685866;28;1334;-80
2023/01/27 01:01:41;;;;;;;16.70;10.20;;;;;;;5.84;62.12;101799.19;683168;28;1223;-80
2023/01/27 01:02:01;;;;;;;16.17;10.00;;;;;;;5.78;62.17;101796.19;683325;29;1194;-80
2023/01/27 01:02:22;;;;;;;16.60;9.80;;;;;;;5.73;62.39;101791.63;685852;28;1918;-80
2023/01/27 01:02:42;;;;;;;17.38;10.07;;;;;;;5.69;62.43;101784.44;685824;28;1191;-80
2023/01/27 01:03:03;;;;;;;17.98;10.07;;;;;;;5.70;62.24;101794.00;687231;28;1043;-80
2023/01/27 01:03:25;;;;;;;19.73;10.93;;;;;;;5.79;62.38;101806.66;685489;28;847;-80
2023/01/27 01:03:46;;;;;;;21.23;11.23;;;;;;;5.74;62.19;101784.72;682628;29;1439;-80
2023/01/27 01:04:07;;;;;;;19.70;10.55;;;;;;;5.73;62.03;101793.31;682543;28;1224;-80
2023/01/27 01:04:28;;;;;;;17.70;9.70;;;;;;;5.78;62.37;101793.59;685192;28;1414;-80
2023/01/27 01:04:48;;;;;;;16.90;9.80;;;;;;;5.77;62.28;101802.16;685265;29;1293;-80
2023/01/27 01:05:09;;;;;;;18.35;11.10;;;;;;;5.72;62.24;101789.81;686104;28;1068;-80
2023/01/27 01:05:30;;;;;;;17.35;11.27;;;;;;;5.69;61.96;101783.53;685897;28;878;-80
2023/01/27 01:05:50;;;;;;;17.90;11.18;;;;;;;5.75;61.88;101797.78;688674;28;981;-81
2023/01/27 01:06:14;;;;;;;17.77;10.73;;;;;;;5.78;62.03;101798.78;685755;28;1008;-80
2023/01/27 01:06:34;;;;;;;18.38;11.32;;;;;;;5.78;62.40;101806.56;685763;28;1222;-80
2023/01/27 01:06:55;;;;;;;18.10;11.00;;;;;;;5.69;62.22;101797.38;683047;29;985;-80
2023/01/27 01:07:16;;;;;;;18.05;10.25;;;;;;;5.66;61.99;101794.63;685734;28;1230;-80
2023/01/27 01:07:38;;;;;;;19.30;10.50;;;;;;;5.68;62.28;101798.19;688569;28;996;-80
2023/01/27 01:08:01;;;;;;;19.13;10.68;;;;;;;5.68;62.38;101803.38;688532;28;980;-82
2023/01/27 01:08:23;;;;;;;20.70;10.98;;;;;;;5.62;61.97;101787.44;685847;28;1270;-83
2023/01/27 01:08:43;;;;;;;19.45;10.95;;;;;;;5.66;62.19;101793.69;685825;28;1076;-82
2023/01/27 01:09:04;;;;;;;18.33;10.43;;;;;;;5.65;62.08;101797.97;685640;28;1226;-81
2023/01/27 01:09:25;;;;;;;18.90;10.30;;;;;;;5.67;62.17;101800.69;685882;28;1133;-81
2023/01/27 01:09:46;;;;;;;19.55;9.95;;;;;;;5.66;62.09;101797.22;683268;29;795;-81
2023/01/27 01:10:07;;;;;;;19.58;10.48;;;;;;;5.64;62.35;101806.53;685681;28;1237;-80
2023/01/27 01:10:28;;;;;;;19.02;10.40;;;;;;;5.66;62.02;101809.25;685627;28;1442;-80
2023/01/27 01:10:49;;;;;;;18.70;10.15;;;;;;;5.62;62.14;101797.78;683267;28;1163;-80
2023/01/27 01:11:14;;;;;;;18.33;9.90;;;;;;;5.62;62.22;101808.16;683168;29;1001;-80
2023/01/27 01:11:35;;;;;;;20.85;10.65;;;;;;;5.63;62.16;101803.88;685935;28;1006;-81
2023/01/27 01:11:55;;;;;;;20.73;10.45;;;;;;;5.61;61.94;101793.41;685751;28;1140;-80
2023/01/27 01:12:16;;;;;;;20.23;10.43;;;;;;;5.65;62.33;101807.47;685940;28;1028;-80
2023/01/27 01:12:36;;;;;;;19.20;10.07;;;;;;;5.54;62.43;101793.81;685785;28;1034;-80
2023/01/27 01:12:57;;;;;;;18.30;10.75;;;;;;;5.63;62.11;101812.53;683238;28;998;-80
2023/01/27 01:13:18;;;;;;;19.88;11.02;;;;;;;5.59;62.06;101798.47;685860;28;1251;-80
2023/01/27 01:13:40;;;;;;;21.13;11.57;;;;;;;5.57;62.76;101800.09;685853;28;1101;-81
2023/01/27 01:14:01;;;;;;;22.58;11.48;;;;;;;5.58;62.28;101796.69;688455;28;1229;-80
2023/01/27 01:14:21;;;;;;;21.60;11.33;;;;;;;5.61;62.63;101802.06;688599;28;1071;-80
2023/01/27 01:14:42;;;;;;;21.80;11.30;;;;;;;5.59;62.50;101795.88;683065;28;1409;-80
2023/01/27 01:15:03;;;;;;;21.08;11.13;;;;;;;5.61;62.31;101796.00;685809;28;1080;-80
2023/01/27 01:15:23;;;;;;;21.30;11.38;;;;;;;5.56;62.66;101797.38;685856;28;1446;-79
2023/01/27 01:15:45;;;;;;;21.20;11.13;;;;;;;5.57;62.13;101804.34;685869;28;966;-80
2023/01/27 01:16:09;;;;;;;21.77;11.57;;;;;;;5.59;62.67;101802.78;685740;28;1054;-80
2023/01/27 01:16:29;;;;;;;22.15;11.32;;;;;;;5.53;62.35;101797.19;685780;28;1235;-81
2023/01/27 01:16:50;;;;;;;20.55;11.20;;;;;;;5.51;62.20;101788.44;685808;28;752;-80
2023/01/27 01:17:10;;;;;;;21.00;11.40;;;;;;;5.55;62.50;101795.59;689327;28;1166;-81
2023/01/27 01:17:31;;;;;;;20.65;11.70;;;;;;;5.60;62.20;101799.41;689337;28;1040;-80
2023/01/27 01:17:51;;;;;;;21.75;12.00;;;;;;;5.54;62.80;101792.13;688655;28;748;-80
2023/01/27 01:18:13;;;;;;;21.70;11.90;;;;;;;5.58;62.79;101799.28;688413;28;1267;-80
2023/01/27 01:18:34;;;;;;;23.80;12.20;;;;;;;5.51;62.58;101793.63;683054;28;1330;-81
2023/01/27 01:18:57;;;;;;;22.33;11.60;;;;;;;5.60;62.68;101804.56;683236;28;1269;-81
2023/01/27 01:19:18;;;;;;;23.40;11.45;;;;;;;5.40;62.63;101796.38;683089;29;1385;-81
2023/01/27 01:19:39;;;;;;;24.00;11.82;;;;;;;5.34;62.66;101789.13;683221;29;1242;-81
2023/01/27 01:19:59;;;;;;;23.73;11.55;;;;;;;5.42;62.90;101793.91;683211;29;1032;-80
2023/01/27 01:20:20;;;;;;;20.88;11.60;;;;;;;5.48;62.81;101795.19;683092;28;1192;-80
2023/01/27 01:20:42;;;;;;;20.27;11.47;;;;;;;5.50;62.47;101784.94;683101;28;1053;-80
2023/01/27 01:21:05;;;;;;;22.08;12.00;;;;;;;5.47;62.59;101793.41;686322;28;1137;-80
2023/01/27 01:21:26;;;;;;;22.45;11.82;;;;;;;5.58;62.48;101812.22;683056;28;1154;-80
2023/01/27 01:21:46;;;;;;;22.10;12.50;;;;;;;5.48;62.22;101792.59;683274;28;772;-80
2023/01/27 01:22:07;;;;;;;21.90;12.60;;;;;;;5.48;62.34;101795.19;683909;28;1283;-81
2023/01/27 01:22:28;;;;;;;20.80;12.25;;;;;;;5.51;62.29;101803.97;680453;29;1910;-80
2023/01/27 01:22:49;;;;;;;22.15;11.82;;;;;;;5.51;62.72;101798.78;683218;29;1205;-81
2023/01/27 01:23:11;;;;;;;22.55;12.05;;;;;;;5.53;62.46;101804.97;688355;28;1218;-80
2023/01/27 01:23:32;;;;;;;24.08;12.13;;;;;;;5.49;62.48;101790.91;688564;28;992;-81
2023/01/27 01:23:53;;;;;;;23.30;11.93;;;;;;;5.56;62.36;101800.88;685989;28;1135;-81
2023/01/27 01:24:14;;;;;;;22.13;11.85;;;;;;;5.55;62.16;101796.50;683150;28;1264;-80
2023/01/27 01:24:34;;;;;;;22.17;12.23;;;;;;;5.51;62.23;101799.69;683137;29;934;-80
2023/01/27 01:24:55;;;;;;;22.52;12.15;;;;;;;5.53;62.22;101792.91;683226;28;1133;-80
2023/01/27 01:25:16;;;;;;;24.23;12.98;;;;;;;5.59;62.32;101810.56;683186;28;978;-81
2023/01/27 01:25:37;;;;;;;24.33;12.97;;;;;;;5.58;62.24;101813.94;683206;28;1135;-80
2023/01/27 01:25:58;;;;;;;26.40;13.43;;;;;;;5.63;62.34;101812.53;683214;29;1223;-80
2023/01/27 01:26:18;;;;;;;26.53;12.87;;;;;;;5.55;61.92;101800.78;685808;28;988;-80
2023/01/27 01:26:39;;;;;;;26.45;12.88;;;;;;;5.61;61.96;101806.34;685682;28;1292;-81
2023/01/27 01:26:59;;;;;;;24.48;12.48;;;;;;;5.50;62.22;101792.72;683182;29;1375;-81
2023/01/27 01:27:20;;;;;;;23.17;11.93;;;;;;;5.50;62.29;101791.78;683297;28;1128;-81
2023/01/27 01:27:43;;;;;;;24.05;11.80;;;;;;;5.54;62.18;101799.91;686035;28;1205;-81
2023/01/27 01:28:05;;;;;;;24.80;11.73;;;;;;;5.55;62.08;101803.38;685924;28;1385;-81
2023/01/27 01:28:26;;;;;;;25.75;12.63;;;;;;;5.50;62.40;101795.28;685971;28;1479;-80
2023/01/27 01:28:47;;;;;;;24.63;12.97;;;;;;;5.53;62.14;101802.38;686041;28;799;-81
2023/01/27 01:29:07;;;;;;;27.00;13.40;;;;;;;5.57;62.35;101804.34;683589;28;1201;-80
2023/01/27 01:29:28;;;;;;;25.93;13.30;;;;;;;5.60;62.23;101807.16;686231;28;1020;-81
2023/01/27 01:29:48;;;;;;;25.13;12.80;;;;;;;5.58;62.21;101801.00;688846;28;764;-80
2023/01/27 01:30:09;;;;;;;22.00;12.50;;;;;;;5.51;62.22;101797.09;683504;29;1088;-80
2023/01/27 01:30:32;;;;;;;20.10;12.30;;;;;;;5.58;62.21;101811.34;688709;28;1005;-80
2023/01/27 01:30:53;;;;;;;20.98;12.55;;;;;;;5.44;62.18;101795.81;683421;28;1451;-79
2023/01/27 01:31:18;;;;;;;21.97;12.73;;;;;;;5.48;62.32;101805.53;683633;29;1087;-80
2023/01/27 01:31:39;;;;;;;24.25;13.00;;;;;;;5.50;62.65;101794.38;686076;28;1022;-80
2023/01/27 01:32:00;;;;;;;23.27;12.55;;;;;;;5.54;62.34;101802.47;686279;28;1067;-81
2023/01/27 01:32:20;;;;;;;22.60;12.18;;;;;;;5.58;62.48;101811.34;686149;28;1073;-80
2023/01/27 01:32:41;;;;;;;23.60;12.10;;;;;;;5.61;62.16;101808.94;686141;28;1132;-81
2023/01/27 01:33:02;;;;;;;23.48;11.73;;;;;;;5.61;62.42;101803.78;688821;28;1204;-80
2023/01/27 01:33:23;;;;;;;23.98;11.60;;;;;;;5.59;62.01;101803.66;688801;28;1234;-80
2023/01/27 01:33:44;;;;;;;25.42;11.90;;;;;;;5.63;62.37;101815.13;685942;28;1088;-80
2023/01/27 01:34:05;;;;;;;27.17;12.70;;;;;;;5.59;62.10;101810.56;685729;28;1383;-80
2023/01/27 01:34:27;;;;;;;28.30;12.70;;;;;;;5.53;62.36;101808.44;683271;28;1482;-80
2023/01/27 01:34:48;;;;;;;25.63;12.23;;;;;;;5.41;62.80;101805.94;688826;28;1389;-81
2023/01/27 01:35:10;;;;;;;24.42;12.20;;;;;;;5.41;62.23;101805.06;688523;28;1222;-80
2023/01/27 01:35:31;;;;;;;22.65;12.23;;;;;;;5.39;62.72;101804.94;688618;28;993;-81
2023/01/27 01:35:51;;;;;;;23.05;12.10;;;;;;;5.43;62.88;101811.22;688710;28;1118;-80
2023/01/27 01:36:15;;;;;;;23.53;11.73;;;;;;;5.35;62.75;101802.97;688435;28;1146;-81
2023/01/27 01:36:36;;;;;;;21.98;11.88;;;;;;;5.33;62.94;101814.88;688650;28;1331;-80
2023/01/27 01:36:58;;;;;;;24.58;12.40;;;;;;;5.28;62.99;101812.00;685679;28;1105;-80
2023/01/27 01:37:19;;;;;;;23.42;12.52;;;;;;;5.36;63.01;101809.94;688549;28;1224;-81
2023/01/27 01:37:40;;;;;;;23.75;12.77;;;;;;;5.39;63.18;101806.66;683074;29;1194;-80
2023/01/27 01:38:01;;;;;;;22.27;13.27;;;;;;;5.40;62.86;101801.56;683183;28;1078;-80
2023/01/27 01:38:21;;;;;;;25.85;13.70;;;;;;;5.48;62.79;101805.53;685754;28;1177;-80
2023/01/27 01:38:42;;;;;;;26.73;13.27;;;;;;;5.53;62.60;101815.31;685824;28;993;-80
2023/01/27 01:39:03;;;;;;;26.13;12.73;;;;;;;5.54;62.66;101810.25;685667;28;1017;-80
2023/01/27 01:39:24;;;;;;;22.17;12.20;;;;;;;5.51;62.50;101804.84;685930;28;820;-81
2023/01/27 01:39:44;;;;;;;20.83;12.20;;;;;;;5.49;63.05;101801.28;685838;28;1120;-81
2023/01/27 01:40:07;;;;;;;20.90;11.85;;;;;;;5.55;62.33;101822.41;683025;28;1365;-80
2023/01/27 01:40:28;;;;;;;20.77;11.73;;;;;;;5.53;62.30;101810.16;685773;28;1231;-80
2023/01/27 01:40:48;;;;;;;20.35;12.02;;;;;;;5.48;62.77;101799.50;683243;28;942;-80
2023/01/27 01:41:12;;;;;;;19.53;12.00;;;;;;;5.52;62.36;101810.94;680356;29;1040;-81
2023/01/27 01:41:33;;;;;;;19.63;12.00;;;;;;;5.51;62.40;101803.97;680371;29;1352;-80
2023/01/27 01:41:54;;;;;;;21.03;12.13;;;;;;;5.58;62.68;101820.00;680563;29;1002;-80
2023/01/27 01:42:14;;;;;;;20.10;12.00;;;;;;;5.57;62.43;101817.31;680392;28;1903;-81
2023/01/27 01:43:31;;;;;;;23.85;12.40;;;;;;;5.63;62.46;101828.06;682785;28;1057;-80
2023/01/27 01:44:23;;;;;;;26.13;12.80;;;;;;;5.64;62.50;101827.25;686613;28;1044;-80
2023/01/27 01:44:44;;;;;;;23.40;12.70;;;;;;;5.56;62.57;101816.41;693834;28;1048;-80
2023/01/27 01:45:32;;;;;;;21.90;12.55;;;;;;;5.61;62.79;101827.06;691162;28;1198;-80
2023/01/27 01:45:55;;;;;;;20.25;12.20;;;;;;;5.57;62.32;101819.88;688489;28;926;-81
2023/01/27 01:46:17;;;;;;;20.08;12.02;;;;;;;5.60;62.70;101825.28;685752;28;1220;-81
2023/01/27 01:46:39;;;;;;;21.95;12.70;;;;;;;5.56;62.85;101818.09;685687;28;1168;-80
2023/01/27 01:47:02;;;;;;;22.33;13.10;;;;;;;5.55;62.46;101816.31;688226;28;1048;-80
2023/01/27 01:47:23;;;;;;;23.13;13.35;;;;;;;5.60;62.31;101825.28;688613;28;847;-80
2023/01/27 01:47:44;;;;;;;23.05;13.05;;;;;;;5.54;62.75;101817.09;688401;28;1123;-80
2023/01/27 01:48:28;;;;;;;22.87;12.50;;;;;;;5.55;62.94;101821.50;686195;28;1083;-80
2023/01/27 01:48:54;;;;;;;22.85;12.13;;;;;;;5.59;62.61;101826.97;685817;28;941;-81
2023/01/27 01:49:20;;;;;;;23.65;12.30;;;;;;;5.60;62.77;101833.06;685798;28;1043;-80
2023/01/27 01:49:41;;;;;;;23.05;12.32;;;;;;;5.53;62.62;101820.50;685752;28;1036;-81
2023/01/27 01:50:02;;;;;;;22.98;12.43;;;;;;;5.50;62.88;101817.69;685640;28;1165;-80
2023/01/27 01:50:23;;;;;;;23.10;11.77;;;;;;;5.47;62.68;101810.66;685913;28;858;-81
2023/01/27 01:50:50;;;;;;;21.75;11.82;;;;;;;5.59;62.78;101829.56;685827;28;1119;-81
2023/01/27 01:51:16;;;;;;;21.48;12.02;;;;;;;5.47;62.72;101818.41;688287;28;1276;-81
2023/01/27 01:51:41;;;;;;;22.65;12.73;;;;;;;5.47;63.20;101808.94;683075;28;1266;-80
2023/01/27 01:52:12;;;;;;;20.95;12.35;;;;;;;5.50;62.82;101816.00;685612;28;1174;-81
2023/01/27 01:52:33;;;;;;;21.45;11.98;;;;;;;5.50;62.97;101808.25;685823;28;1107;-80
2023/01/27 01:52:54;;;;;;;21.38;11.85;;;;;;;5.57;62.72;101819.88;683087;29;1213;-81
2023/01/27 01:53:16;;;;;;;22.08;12.40;;;;;;;5.52;62.90;101817.00;685637;28;1253;-80
2023/01/27 01:53:42;;;;;;;20.85;12.45;;;;;;;5.55;62.75;101812.03;685736;28;1184;-80
2023/01/27 01:54:18;;;;;;;20.48;12.13;;;;;;;5.53;62.68;101817.91;683012;28;1080;-80
2023/01/27 01:54:44;;;;;;;21.65;12.05;;;;;;;5.50;62.94;101816.00;684022;28;982;-80